sensor_id;sensor_type;location;lat;lon;timestamp;P1;durP1;ratioP1;P2;durP2;ratioP2
13026;SDS011;6580;42.680;23.324;2022-10-16T00:01:26;12.53;;;11.10;;
13026;SDS011;6580;42.680;23.324;2022-10-16T00:03:58;13.23;;;10.60;;
13026;SDS011;6580;42.680;23.324;2022-10-16T00:06:28;13.30;;;10.93;;
13026;SDS011;6580;42.680;23.324;2022-10-16T00:08:56;12.33;;;11.13;;
13026;SDS011;6580;42.680;23.324;2022-10-16T00:11:26;14.70;;;12.20;;
13026;SDS011;6580;42.680;23.324;2022-10-16T00:13:57;13.07;;;11.27;;
13026;SDS011;6580;42.680;23.324;2022-10-16T00:16:26;14.77;;;12.00;;
13026;SDS011;6580;42.680;23.324;2022-10-16T00:18:54;11.83;;;10.73;;
13026;SDS011;6580;42.680;23.324;2022-10-16T00:21:27;13.90;;;11.43;;
13026;SDS011;6580;42.680;23.324;2022-10-16T00:23:56;13.00;;;11.67;;
13026;SDS011;6580;42.680;23.324;2022-10-16T00:26:26;12.93;;;11.17;;
13026;SDS011;6580;42.680;23.324;2022-10-16T00:28:55;12.10;;;10.90;;
13026;SDS011;6580;42.680;23.324;2022-10-16T00:31:22;13.67;;;11.07;;
13026;SDS011;6580;42.680;23.324;2022-10-16T00:33:50;11.93;;;10.73;;
13026;SDS011;6580;42.680;23.324;2022-10-16T00:36:17;12.00;;;10.80;;
13026;SDS011;6580;42.680;23.324;2022-10-16T00:38:46;11.93;;;10.63;;
13026;SDS011;6580;42.680;23.324;2022-10-16T00:41:15;12.23;;;10.83;;
13026;SDS011;6580;42.680;23.324;2022-10-16T00:43:45;12.03;;;10.73;;
13026;SDS011;6580;42.680;23.324;2022-10-16T00:46:15;12.13;;;10.27;;
13026;SDS011;6580;42.680;23.324;2022-10-16T00:48:45;11.43;;;10.23;;
13026;SDS011;6580;42.680;23.324;2022-10-16T00:51:15;14.07;;;12.23;;
13026;SDS011;6580;42.680;23.324;2022-10-16T00:53:46;14.60;;;13.20;;
13026;SDS011;6580;42.680;23.324;2022-10-16T00:56:13;13.67;;;12.27;;
13026;SDS011;6580;42.680;23.324;2022-10-16T00:58:40;15.90;;;12.77;;
13026;SDS011;6580;42.680;23.324;2022-10-16T01:01:08;15.27;;;13.67;;
13026;SDS011;6580;42.680;23.324;2022-10-16T01:03:37;14.07;;;12.27;;
13026;SDS011;6580;42.680;23.324;2022-10-16T01:06:10;16.43;;;13.30;;
13026;SDS011;6580;42.680;23.324;2022-10-16T01:08:51;15.80;;;13.50;;
13026;SDS011;6580;42.680;23.324;2022-10-16T01:11:28;14.13;;;12.63;;
13026;SDS011;6580;42.680;23.324;2022-10-16T01:14:02;15.53;;;13.20;;
13026;SDS011;6580;42.680;23.324;2022-10-16T01:16:37;15.40;;;13.53;;
13026;SDS011;6580;42.680;23.324;2022-10-16T01:19:12;17.00;;;13.37;;
13026;SDS011;6580;42.680;23.324;2022-10-16T01:21:44;16.23;;;14.37;;
13026;SDS011;6580;42.680;23.324;2022-10-16T01:24:17;16.43;;;14.13;;
13026;SDS011;6580;42.680;23.324;2022-10-16T01:29:48;16.80;;;14.90;;
13026;SDS011;6580;42.680;23.324;2022-10-16T01:32:20;15.90;;;14.20;;
13026;SDS011;6580;42.680;23.324;2022-10-16T01:34:53;17.17;;;14.47;;
13026;SDS011;6580;42.680;23.324;2022-10-16T01:37:28;14.80;;;13.30;;
13026;SDS011;6580;42.680;23.324;2022-10-16T01:39:59;16.10;;;14.47;;
13026;SDS011;6580;42.680;23.324;2022-10-16T01:42:30;15.40;;;13.80;;
13026;SDS011;6580;42.680;23.324;2022-10-16T01:45:02;13.83;;;12.43;;
13026;SDS011;6580;42.680;23.324;2022-10-16T01:47:33;15.77;;;14.17;;
13026;SDS011;6580;42.680;23.324;2022-10-16T01:50:05;14.23;;;11.60;;
13026;SDS011;6580;42.680;23.324;2022-10-16T01:52:34;13.50;;;12.13;;
13026;SDS011;6580;42.680;23.324;2022-10-16T01:55:06;13.03;;;11.67;;
13026;SDS011;6580;42.680;23.324;2022-10-16T01:57:41;14.83;;;12.37;;
13026;SDS011;6580;42.680;23.324;2022-10-16T02:00:13;14.77;;;12.90;;
13026;SDS011;6580;42.680;23.324;2022-10-16T02:02:44;13.80;;;12.33;;
13026;SDS011;6580;42.680;23.324;2022-10-16T02:05:15;15.07;;;13.47;;
13026;SDS011;6580;42.680;23.324;2022-10-16T02:07:46;15.77;;;13.67;;
13026;SDS011;6580;42.680;23.324;2022-10-16T02:10:14;19.93;;;14.97;;
13026;SDS011;6580;42.680;23.324;2022-10-16T02:12:44;15.70;;;14.20;;
13026;SDS011;6580;42.680;23.324;2022-10-16T02:15:16;17.50;;;13.97;;
13026;SDS011;6580;42.680;23.324;2022-10-16T02:17:42;16.83;;;14.10;;
13026;SDS011;6580;42.680;23.324;2022-10-16T02:20:10;15.93;;;13.57;;
13026;SDS011;6580;42.680;23.324;2022-10-16T02:22:38;15.43;;;13.83;;
13026;SDS011;6580;42.680;23.324;2022-10-16T02:25:10;16.33;;;13.87;;
13026;SDS011;6580;42.680;23.324;2022-10-16T02:27:43;14.27;;;11.97;;
13026;SDS011;6580;42.680;23.324;2022-10-16T02:30:19;14.67;;;11.67;;
13026;SDS011;6580;42.680;23.324;2022-10-16T02:32:50;12.90;;;10.80;;
13026;SDS011;6580;42.680;23.324;2022-10-16T02:35:20;12.73;;;10.70;;
13026;SDS011;6580;42.680;23.324;2022-10-16T02:37:49;14.50;;;12.10;;
13026;SDS011;6580;42.680;23.324;2022-10-16T02:40:17;11.43;;;10.33;;
13026;SDS011;6580;42.680;23.324;2022-10-16T02:42:49;10.03;;;9.07;;
13026;SDS011;6580;42.680;23.324;2022-10-16T02:45:18;12.27;;;10.77;;
13026;SDS011;6580;42.680;23.324;2022-10-16T02:47:45;10.83;;;9.67;;
13026;SDS011;6580;42.680;23.324;2022-10-16T02:50:11;11.13;;;9.43;;
13026;SDS011;6580;42.680;23.324;2022-10-16T02:52:38;10.43;;;9.37;;
13026;SDS011;6580;42.680;23.324;2022-10-16T02:55:10;12.83;;;10.00;;
13026;SDS011;6580;42.680;23.324;2022-10-16T02:57:36;11.50;;;10.30;;
13026;SDS011;6580;42.680;23.324;2022-10-16T03:00:08;11.23;;;10.07;;
13026;SDS011;6580;42.680;23.324;2022-10-16T03:02:38;12.70;;;10.47;;
13026;SDS011;6580;42.680;23.324;2022-10-16T03:05:05;12.03;;;10.70;;
13026;SDS011;6580;42.680;23.324;2022-10-16T03:07:32;11.63;;;10.43;;
13026;SDS011;6580;42.680;23.324;2022-10-16T03:09:59;11.37;;;10.00;;
13026;SDS011;6580;42.680;23.324;2022-10-16T03:12:26;11.37;;;10.17;;
13026;SDS011;6580;42.680;23.324;2022-10-16T03:14:53;10.07;;;9.17;;
13026;SDS011;6580;42.680;23.324;2022-10-16T03:17:22;11.67;;;9.60;;
13026;SDS011;6580;42.680;23.324;2022-10-16T03:19:49;10.83;;;9.73;;
13026;SDS011;6580;42.680;23.324;2022-10-16T03:22:16;10.30;;;8.87;;
13026;SDS011;6580;42.680;23.324;2022-10-16T03:24:42;10.07;;;9.00;;
13026;SDS011;6580;42.680;23.324;2022-10-16T03:27:09;10.13;;;9.13;;
13026;SDS011;6580;42.680;23.324;2022-10-16T03:29:36;9.33;;;8.33;;
13026;SDS011;6580;42.680;23.324;2022-10-16T03:32:03;9.60;;;8.60;;
13026;SDS011;6580;42.680;23.324;2022-10-16T03:34:31;9.00;;;8.10;;
13026;SDS011;6580;42.680;23.324;2022-10-16T03:37:01;9.43;;;8.53;;
13026;SDS011;6580;42.680;23.324;2022-10-16T03:39:28;10.37;;;8.67;;
13026;SDS011;6580;42.680;23.324;2022-10-16T03:41:55;11.60;;;8.70;;
13026;SDS011;6580;42.680;23.324;2022-10-16T03:44:22;10.30;;;8.10;;
13026;SDS011;6580;42.680;23.324;2022-10-16T03:46:49;9.17;;;8.00;;
13026;SDS011;6580;42.680;23.324;2022-10-16T03:49:16;9.30;;;8.47;;
13026;SDS011;6580;42.680;23.324;2022-10-16T03:51:44;11.27;;;8.10;;
13026;SDS011;6580;42.680;23.324;2022-10-16T03:54:11;11.43;;;10.13;;
13026;SDS011;6580;42.680;23.324;2022-10-16T03:56:38;10.67;;;9.30;;
13026;SDS011;6580;42.680;23.324;2022-10-16T03:59:05;11.20;;;8.87;;
13026;SDS011;6580;42.680;23.324;2022-10-16T04:01:32;8.77;;;7.87;;
13026;SDS011;6580;42.680;23.324;2022-10-16T04:03:59;9.07;;;8.07;;
13026;SDS011;6580;42.680;23.324;2022-10-16T04:06:26;10.37;;;9.13;;
13026;SDS011;6580;42.680;23.324;2022-10-16T04:08:55;10.47;;;9.13;;
13026;SDS011;6580;42.680;23.324;2022-10-16T04:11:22;10.70;;;9.63;;
13026;SDS011;6580;42.680;23.324;2022-10-16T04:13:48;11.93;;;10.43;;
13026;SDS011;6580;42.680;23.324;2022-10-16T04:16:15;13.97;;;11.13;;
13026;SDS011;6580;42.680;23.324;2022-10-16T04:18:42;11.50;;;10.03;;
13026;SDS011;6580;42.680;23.324;2022-10-16T04:21:10;11.83;;;10.13;;
13026;SDS011;6580;42.680;23.324;2022-10-16T04:23:37;13.30;;;10.63;;
13026;SDS011;6580;42.680;23.324;2022-10-16T04:26:06;10.60;;;9.50;;
13026;SDS011;6580;42.680;23.324;2022-10-16T04:28:32;12.77;;;10.33;;
13026;SDS011;6580;42.680;23.324;2022-10-16T04:31:03;11.30;;;9.47;;
13026;SDS011;6580;42.680;23.324;2022-10-16T04:33:30;11.57;;;10.37;;
13026;SDS011;6580;42.680;23.324;2022-10-16T04:35:59;11.70;;;10.30;;
13026;SDS011;6580;42.680;23.324;2022-10-16T04:38:26;11.57;;;10.33;;
13026;SDS011;6580;42.680;23.324;2022-10-16T04:40:54;10.77;;;9.73;;
13026;SDS011;6580;42.680;23.324;2022-10-16T04:43:23;10.87;;;9.77;;
13026;SDS011;6580;42.680;23.324;2022-10-16T04:45:52;10.80;;;9.13;;
13026;SDS011;6580;42.680;23.324;2022-10-16T04:48:19;13.80;;;10.17;;
13026;SDS011;6580;42.680;23.324;2022-10-16T04:50:46;12.67;;;9.90;;
13026;SDS011;6580;42.680;23.324;2022-10-16T04:53:14;9.87;;;8.87;;
13026;SDS011;6580;42.680;23.324;2022-10-16T04:55:41;14.40;;;10.30;;
13026;SDS011;6580;42.680;23.324;2022-10-16T04:58:09;10.50;;;9.47;;
13026;SDS011;6580;42.680;23.324;2022-10-16T05:00:38;13.70;;;11.00;;
13026;SDS011;6580;42.680;23.324;2022-10-16T05:03:05;11.47;;;10.00;;
13026;SDS011;6580;42.680;23.324;2022-10-16T05:05:34;11.50;;;10.30;;
13026;SDS011;6580;42.680;23.324;2022-10-16T05:08:01;12.57;;;10.43;;
13026;SDS011;6580;42.680;23.324;2022-10-16T05:10:28;11.03;;;9.93;;
13026;SDS011;6580;42.680;23.324;2022-10-16T05:12:55;11.90;;;10.37;;
13026;SDS011;6580;42.680;23.324;2022-10-16T05:15:21;11.60;;;10.40;;
13026;SDS011;6580;42.680;23.324;2022-10-16T05:17:53;12.23;;;10.90;;
13026;SDS011;6580;42.680;23.324;2022-10-16T05:20:20;11.37;;;10.13;;
13026;SDS011;6580;42.680;23.324;2022-10-16T05:22:46;11.30;;;10.10;;
13026;SDS011;6580;42.680;23.324;2022-10-16T05:25:13;10.17;;;9.17;;
13026;SDS011;6580;42.680;23.324;2022-10-16T05:27:40;10.03;;;9.03;;
13026;SDS011;6580;42.680;23.324;2022-10-16T05:30:07;11.07;;;9.23;;
13026;SDS011;6580;42.680;23.324;2022-10-16T05:32:35;10.00;;;8.97;;
13026;SDS011;6580;42.680;23.324;2022-10-16T05:35:04;11.90;;;10.23;;
13026;SDS011;6580;42.680;23.324;2022-10-16T05:37:31;10.73;;;9.03;;
13026;SDS011;6580;42.680;23.324;2022-10-16T05:40:01;10.50;;;8.83;;
13026;SDS011;6580;42.680;23.324;2022-10-16T05:42:30;10.83;;;8.97;;
13026;SDS011;6580;42.680;23.324;2022-10-16T05:44:56;10.37;;;9.00;;
13026;SDS011;6580;42.680;23.324;2022-10-16T05:47:23;12.97;;;9.40;;
13026;SDS011;6580;42.680;23.324;2022-10-16T05:49:51;10.40;;;9.37;;
13026;SDS011;6580;42.680;23.324;2022-10-16T05:52:20;11.57;;;9.63;;
13026;SDS011;6580;42.680;23.324;2022-10-16T05:54:47;11.87;;;10.37;;
13026;SDS011;6580;42.680;23.324;2022-10-16T05:57:14;10.87;;;9.77;;
13026;SDS011;6580;42.680;23.324;2022-10-16T05:59:45;10.67;;;9.43;;
13026;SDS011;6580;42.680;23.324;2022-10-16T06:02:12;10.80;;;9.77;;
13026;SDS011;6580;42.680;23.324;2022-10-16T06:04:39;10.60;;;9.53;;
13026;SDS011;6580;42.680;23.324;2022-10-16T06:07:07;11.23;;;10.10;;
13026;SDS011;6580;42.680;23.324;2022-10-16T06:09:35;12.53;;;10.80;;
13026;SDS011;6580;42.680;23.324;2022-10-16T06:12:02;11.17;;;9.90;;
13026;SDS011;6580;42.680;23.324;2022-10-16T06:14:29;11.50;;;10.10;;
13026;SDS011;6580;42.680;23.324;2022-10-16T06:16:56;14.73;;;11.10;;
13026;SDS011;6580;42.680;23.324;2022-10-16T06:19:23;12.40;;;9.83;;
13026;SDS011;6580;42.680;23.324;2022-10-16T06:21:50;14.13;;;10.60;;
13026;SDS011;6580;42.680;23.324;2022-10-16T06:24:17;11.57;;;10.37;;
13026;SDS011;6580;42.680;23.324;2022-10-16T06:26:45;11.40;;;10.20;;
13026;SDS011;6580;42.680;23.324;2022-10-16T06:29:12;11.97;;;10.73;;
13026;SDS011;6580;42.680;23.324;2022-10-16T06:31:39;11.67;;;10.47;;
13026;SDS011;6580;42.680;23.324;2022-10-16T06:34:06;13.10;;;10.23;;
13026;SDS011;6580;42.680;23.324;2022-10-16T06:36:36;12.33;;;10.70;;
13026;SDS011;6580;42.680;23.324;2022-10-16T06:39:04;12.10;;;10.73;;
13026;SDS011;6580;42.680;23.324;2022-10-16T06:41:34;12.97;;;11.10;;
13026;SDS011;6580;42.680;23.324;2022-10-16T06:44:08;13.53;;;11.00;;
13026;SDS011;6580;42.680;23.324;2022-10-16T06:46:35;12.87;;;11.23;;
13026;SDS011;6580;42.680;23.324;2022-10-16T06:49:02;12.50;;;11.13;;
13026;SDS011;6580;42.680;23.324;2022-10-16T06:51:32;14.37;;;11.97;;
13026;SDS011;6580;42.680;23.324;2022-10-16T06:54:00;13.53;;;12.13;;
13026;SDS011;6580;42.680;23.324;2022-10-16T06:56:28;12.40;;;10.57;;
13026;SDS011;6580;42.680;23.324;2022-10-16T06:58:58;12.70;;;11.40;;
13026;SDS011;6580;42.680;23.324;2022-10-16T07:01:27;13.03;;;11.10;;
13026;SDS011;6580;42.680;23.324;2022-10-16T07:03:55;13.47;;;11.17;;
13026;SDS011;6580;42.680;23.324;2022-10-16T07:06:23;12.27;;;11.00;;
13026;SDS011;6580;42.680;23.324;2022-10-16T07:08:51;12.10;;;11.00;;
13026;SDS011;6580;42.680;23.324;2022-10-16T07:11:21;13.57;;;11.70;;
13026;SDS011;6580;42.680;23.324;2022-10-16T07:14:00;12.77;;;11.47;;
13026;SDS011;6580;42.680;23.324;2022-10-16T07:16:29;13.47;;;11.80;;
13026;SDS011;6580;42.680;23.324;2022-10-16T07:18:58;15.00;;;12.63;;
13026;SDS011;6580;42.680;23.324;2022-10-16T07:21:27;15.07;;;12.17;;
13026;SDS011;6580;42.680;23.324;2022-10-16T07:23:56;14.43;;;12.97;;
13026;SDS011;6580;42.680;23.324;2022-10-16T07:26:27;13.37;;;11.87;;
13026;SDS011;6580;42.680;23.324;2022-10-16T07:28:56;15.17;;;13.57;;
13026;SDS011;6580;42.680;23.324;2022-10-16T07:31:28;14.03;;;12.63;;
13026;SDS011;6580;42.680;23.324;2022-10-16T07:33:57;13.33;;;12.03;;
13026;SDS011;6580;42.680;23.324;2022-10-16T07:36:27;14.47;;;12.57;;
13026;SDS011;6580;42.680;23.324;2022-10-16T07:38:54;14.10;;;12.00;;
13026;SDS011;6580;42.680;23.324;2022-10-16T07:41:21;13.63;;;12.13;;
13026;SDS011;6580;42.680;23.324;2022-10-16T07:43:48;12.67;;;11.47;;
13026;SDS011;6580;42.680;23.324;2022-10-16T07:46:17;15.40;;;11.10;;
13026;SDS011;6580;42.680;23.324;2022-10-16T07:48:46;14.53;;;11.57;;
13026;SDS011;6580;42.680;23.324;2022-10-16T07:51:14;12.97;;;11.20;;
13026;SDS011;6580;42.680;23.324;2022-10-16T07:53:42;13.80;;;11.30;;
13026;SDS011;6580;42.680;23.324;2022-10-16T07:56:12;11.70;;;10.30;;
13026;SDS011;6580;42.680;23.324;2022-10-16T07:58:41;9.87;;;8.73;;
13026;SDS011;6580;42.680;23.324;2022-10-16T08:01:09;9.17;;;8.23;;
13026;SDS011;6580;42.680;23.324;2022-10-16T08:03:41;8.97;;;8.03;;
13026;SDS011;6580;42.680;23.324;2022-10-16T08:06:10;8.50;;;7.70;;
13026;SDS011;6580;42.680;23.324;2022-10-16T08:08:39;7.70;;;6.93;;
13026;SDS011;6580;42.680;23.324;2022-10-16T08:11:07;7.67;;;6.77;;
13026;SDS011;6580;42.680;23.324;2022-10-16T08:13:34;7.27;;;6.57;;
13026;SDS011;6580;42.680;23.324;2022-10-16T08:16:01;8.38;;;6.55;;
13026;SDS011;6580;42.680;23.324;2022-10-16T08:18:32;8.23;;;7.07;;
13026;SDS011;6580;42.680;23.324;2022-10-16T08:21:00;7.90;;;7.10;;
13026;SDS011;6580;42.680;23.324;2022-10-16T08:23:28;7.20;;;6.50;;
13026;SDS011;6580;42.680;23.324;2022-10-16T08:25:56;7.95;;;6.72;;
13026;SDS011;6580;42.680;23.324;2022-10-16T08:28:27;7.30;;;6.60;;
13026;SDS011;6580;42.680;23.324;2022-10-16T08:30:54;7.00;;;5.95;;
13026;SDS011;6580;42.680;23.324;2022-10-16T08:33:22;7.93;;;6.07;;
13026;SDS011;6580;42.680;23.324;2022-10-16T08:35:52;6.15;;;5.70;;
13026;SDS011;6580;42.680;23.324;2022-10-16T08:38:19;6.90;;;4.90;;
13026;SDS011;6580;42.680;23.324;2022-10-16T08:40:48;5.55;;;5.05;;
13026;SDS011;6580;42.680;23.324;2022-10-16T08:43:23;6.10;;;5.55;;
13026;SDS011;6580;42.680;23.324;2022-10-16T08:46:07;7.80;;;7.00;;
13026;SDS011;6580;42.680;23.324;2022-10-16T08:48:50;5.05;;;4.65;;
13026;SDS011;6580;42.680;23.324;2022-10-16T08:51:19;5.63;;;5.03;;
13026;SDS011;6580;42.680;23.324;2022-10-16T08:53:49;7.47;;;4.57;;
13026;SDS011;6580;42.680;23.324;2022-10-16T08:56:21;5.72;;;5.20;;
13026;SDS011;6580;42.680;23.324;2022-10-16T08:58:49;4.70;;;4.28;;
13026;SDS011;6580;42.680;23.324;2022-10-16T09:01:17;4.53;;;4.13;;
13026;SDS011;6580;42.680;23.324;2022-10-16T09:04:01;4.97;;;4.47;;
13026;SDS011;6580;42.680;23.324;2022-10-16T09:06:45;5.50;;;4.90;;
13026;SDS011;6580;42.680;23.324;2022-10-16T09:09:24;7.35;;;4.55;;
13026;SDS011;6580;42.680;23.324;2022-10-16T09:12:09;4.88;;;4.38;;
13026;SDS011;6580;42.680;23.324;2022-10-16T09:14:54;4.82;;;4.43;;
13026;SDS011;6580;42.680;23.324;2022-10-16T09:17:33;4.43;;;3.97;;
13026;SDS011;6580;42.680;23.324;2022-10-16T09:20:13;4.10;;;3.75;;
13026;SDS011;6580;42.680;23.324;2022-10-16T09:22:50;4.30;;;3.88;;
13026;SDS011;6580;42.680;23.324;2022-10-16T09:25:21;4.28;;;3.90;;
13026;SDS011;6580;42.680;23.324;2022-10-16T09:27:53;5.22;;;3.85;;
13026;SDS011;6580;42.680;23.324;2022-10-16T09:30:29;3.97;;;3.67;;
13026;SDS011;6580;42.680;23.324;2022-10-16T09:33:02;4.55;;;4.15;;
13026;SDS011;6580;42.680;23.324;2022-10-16T09:35:32;4.68;;;3.30;;
13026;SDS011;6580;42.680;23.324;2022-10-16T09:38:02;4.85;;;3.90;;
13026;SDS011;6580;42.680;23.324;2022-10-16T09:40:30;5.03;;;4.40;;
13026;SDS011;6580;42.680;23.324;2022-10-16T09:43:12;4.32;;;3.58;;
13026;SDS011;6580;42.680;23.324;2022-10-16T09:45:55;4.25;;;3.95;;
13026;SDS011;6580;42.680;23.324;2022-10-16T09:48:27;5.00;;;4.18;;
13026;SDS011;6580;42.680;23.324;2022-10-16T09:51:01;5.28;;;4.80;;
13026;SDS011;6580;42.680;23.324;2022-10-16T09:53:38;4.38;;;3.97;;
13026;SDS011;6580;42.680;23.324;2022-10-16T09:56:07;5.72;;;3.80;;
13026;SDS011;6580;42.680;23.324;2022-10-16T09:58:43;3.78;;;3.47;;
13026;SDS011;6580;42.680;23.324;2022-10-16T10:01:15;4.78;;;4.28;;
13026;SDS011;6580;42.680;23.324;2022-10-16T10:03:43;5.50;;;4.18;;
13026;SDS011;6580;42.680;23.324;2022-10-16T10:08:59;4.78;;;4.30;;
13026;SDS011;6580;42.680;23.324;2022-10-16T10:11:47;4.47;;;4.00;;
13026;SDS011;6580;42.680;23.324;2022-10-16T10:14:20;4.78;;;4.28;;
13026;SDS011;6580;42.680;23.324;2022-10-16T10:16:52;4.15;;;3.85;;
13026;SDS011;6580;42.680;23.324;2022-10-16T10:19:27;3.90;;;3.50;;
13026;SDS011;6580;42.680;23.324;2022-10-16T10:21:55;4.55;;;3.63;;
13026;SDS011;6580;42.680;23.324;2022-10-16T10:24:22;3.55;;;3.25;;
13026;SDS011;6580;42.680;23.324;2022-10-16T10:26:51;3.30;;;3.10;;
13026;SDS011;6580;42.680;23.324;2022-10-16T10:29:27;3.58;;;3.25;;
13026;SDS011;6580;42.680;23.324;2022-10-16T10:32:12;3.97;;;3.60;;
13026;SDS011;6580;42.680;23.324;2022-10-16T10:34:51;4.15;;;3.75;;
13026;SDS011;6580;42.680;23.324;2022-10-16T10:37:35;5.88;;;5.28;;
13026;SDS011;6580;42.680;23.324;2022-10-16T10:40:15;4.10;;;3.80;;
13026;SDS011;6580;42.680;23.324;2022-10-16T10:42:51;11.25;;;9.13;;
13026;SDS011;6580;42.680;23.324;2022-10-16T10:45:26;12.23;;;11.02;;
13026;SDS011;6580;42.680;23.324;2022-10-16T10:48:04;6.13;;;4.20;;
13026;SDS011;6580;42.680;23.324;2022-10-16T10:50:49;4.00;;;3.70;;
13026;SDS011;6580;42.680;23.324;2022-10-16T10:53:25;4.10;;;3.70;;
13026;SDS011;6580;42.680;23.324;2022-10-16T10:56:05;3.80;;;3.45;;
13026;SDS011;6580;42.680;23.324;2022-10-16T10:58:51;3.45;;;3.25;;
13026;SDS011;6580;42.680;23.324;2022-10-16T11:01:32;3.90;;;3.55;;
13026;SDS011;6580;42.680;23.324;2022-10-16T11:04:14;3.63;;;3.22;;
13026;SDS011;6580;42.680;23.324;2022-10-16T11:06:55;3.30;;;3.00;;
13026;SDS011;6580;42.680;23.324;2022-10-16T11:09:28;3.63;;;3.33;;
13026;SDS011;6580;42.680;23.324;2022-10-16T11:12:01;4.03;;;3.63;;
13026;SDS011;6580;42.680;23.324;2022-10-16T11:14:37;4.18;;;3.63;;
13026;SDS011;6580;42.680;23.324;2022-10-16T11:17:10;3.78;;;3.47;;
13026;SDS011;6580;42.680;23.324;2022-10-16T11:19:41;4.28;;;3.42;;
13026;SDS011;6580;42.680;23.324;2022-10-16T11:22:13;3.80;;;3.30;;
13026;SDS011;6580;42.680;23.324;2022-10-16T11:24:46;3.78;;;3.47;;
13026;SDS011;6580;42.680;23.324;2022-10-16T11:27:19;5.05;;;4.60;;
13026;SDS011;6580;42.680;23.324;2022-10-16T11:30:02;4.53;;;4.00;;
13026;SDS011;6580;42.680;23.324;2022-10-16T11:32:42;5.50;;;5.00;;
13026;SDS011;6580;42.680;23.324;2022-10-16T11:35:17;4.55;;;3.58;;
13026;SDS011;6580;42.680;23.324;2022-10-16T11:37:48;4.32;;;3.22;;
13026;SDS011;6580;42.680;23.324;2022-10-16T11:40:19;3.85;;;3.47;;
13026;SDS011;6580;42.680;23.324;2022-10-16T11:42:51;5.20;;;3.60;;
13026;SDS011;6580;42.680;23.324;2022-10-16T11:45:27;3.50;;;3.20;;
13026;SDS011;6580;42.680;23.324;2022-10-16T11:48:02;3.95;;;3.55;;
13026;SDS011;6580;42.680;23.324;2022-10-16T11:50:42;3.15;;;2.85;;
13026;SDS011;6580;42.680;23.324;2022-10-16T11:53:16;8.02;;;7.25;;
13026;SDS011;6580;42.680;23.324;2022-10-16T11:55:50;4.68;;;3.55;;
13026;SDS011;6580;42.680;23.324;2022-10-16T11:58:21;3.60;;;3.30;;
13026;SDS011;6580;42.680;23.324;2022-10-16T12:00:54;5.05;;;3.65;;
13026;SDS011;6580;42.680;23.324;2022-10-16T12:03:29;4.60;;;3.00;;
13026;SDS011;6580;42.680;23.324;2022-10-16T12:06:06;3.60;;;3.30;;
13026;SDS011;6580;42.680;23.324;2022-10-16T12:08:43;4.05;;;3.33;;
13026;SDS011;6580;42.680;23.324;2022-10-16T12:11:33;8.35;;;3.28;;
13026;SDS011;6580;42.680;23.324;2022-10-16T12:17:22;3.33;;;3.03;;
13026;SDS011;6580;42.680;23.324;2022-10-16T12:20:18;3.35;;;3.05;;
13026;SDS011;6580;42.680;23.324;2022-10-16T12:22:48;4.18;;;3.85;;
13026;SDS011;6580;42.680;23.324;2022-10-16T12:25:21;3.80;;;3.38;;
13026;SDS011;6580;42.680;23.324;2022-10-16T12:27:54;3.95;;;3.53;;
13026;SDS011;6580;42.680;23.324;2022-10-16T12:30:23;3.50;;;3.20;;
13026;SDS011;6580;42.680;23.324;2022-10-16T12:32:53;4.03;;;3.72;;
13026;SDS011;6580;42.680;23.324;2022-10-16T12:35:25;4.25;;;3.78;;
13026;SDS011;6580;42.680;23.324;2022-10-16T12:37:54;5.10;;;3.97;;
13026;SDS011;6580;42.680;23.324;2022-10-16T12:40:33;8.23;;;5.72;;
13026;SDS011;6580;42.680;23.324;2022-10-16T12:43:23;5.82;;;4.97;;
13026;SDS011;6580;42.680;23.324;2022-10-16T12:46:00;3.55;;;3.25;;
13026;SDS011;6580;42.680;23.324;2022-10-16T12:48:29;3.65;;;3.35;;
13026;SDS011;6580;42.680;23.324;2022-10-16T12:51:10;4.53;;;4.03;;
13026;SDS011;6580;42.680;23.324;2022-10-16T12:53:39;4.00;;;3.70;;
13026;SDS011;6580;42.680;23.324;2022-10-16T12:56:10;3.92;;;3.53;;
13026;SDS011;6580;42.680;23.324;2022-10-16T12:58:49;4.38;;;3.47;;
13026;SDS011;6580;42.680;23.324;2022-10-16T13:01:31;3.88;;;3.40;;
13026;SDS011;6580;42.680;23.324;2022-10-16T13:07:03;5.60;;;5.07;;
13026;SDS011;6580;42.680;23.324;2022-10-16T13:09:55;4.10;;;3.70;;
13026;SDS011;6580;42.680;23.324;2022-10-16T13:12:38;3.78;;;3.50;;
13026;SDS011;6580;42.680;23.324;2022-10-16T13:15:29;4.20;;;3.30;;
13026;SDS011;6580;42.680;23.324;2022-10-16T13:18:08;3.60;;;3.20;;
13026;SDS011;6580;42.680;23.324;2022-10-16T13:20:56;3.50;;;3.30;;
13026;SDS011;6580;42.680;23.324;2022-10-16T13:23:33;3.45;;;3.20;;
13026;SDS011;6580;42.680;23.324;2022-10-16T13:26:09;3.83;;;3.53;;
13026;SDS011;6580;42.680;23.324;2022-10-16T13:28:44;5.25;;;4.20;;
13026;SDS011;6580;42.680;23.324;2022-10-16T13:31:13;3.70;;;3.40;;
13026;SDS011;6580;42.680;23.324;2022-10-16T13:33:45;3.40;;;3.17;;
13026;SDS011;6580;42.680;23.324;2022-10-16T13:36:19;11.95;;;10.70;;
13026;SDS011;6580;42.680;23.324;2022-10-16T13:38:50;11.85;;;10.43;;
13026;SDS011;6580;42.680;23.324;2022-10-16T13:41:27;7.00;;;6.30;;
13026;SDS011;6580;42.680;23.324;2022-10-16T13:43:54;3.80;;;3.50;;
13026;SDS011;6580;42.680;23.324;2022-10-16T13:46:29;4.10;;;3.78;;
13026;SDS011;6580;42.680;23.324;2022-10-16T13:49:00;3.63;;;3.33;;
13026;SDS011;6580;42.680;23.324;2022-10-16T13:51:29;5.13;;;3.40;;
13026;SDS011;6580;42.680;23.324;2022-10-16T13:53:59;3.75;;;3.45;;
13026;SDS011;6580;42.680;23.324;2022-10-16T13:56:27;4.50;;;3.70;;
13026;SDS011;6580;42.680;23.324;2022-10-16T13:58:58;4.28;;;3.30;;
13026;SDS011;6580;42.680;23.324;2022-10-16T14:01:27;5.30;;;4.80;;
13026;SDS011;6580;42.680;23.324;2022-10-16T14:04:00;5.72;;;3.47;;
13026;SDS011;6580;42.680;23.324;2022-10-16T14:06:30;6.47;;;3.22;;
13026;SDS011;6580;42.680;23.324;2022-10-16T14:09:00;3.45;;;3.05;;
13026;SDS011;6580;42.680;23.324;2022-10-16T14:11:32;3.70;;;2.95;;
13026;SDS011;6580;42.680;23.324;2022-10-16T14:14:01;3.70;;;3.22;;
13026;SDS011;6580;42.680;23.324;2022-10-16T14:16:29;4.35;;;3.42;;
13026;SDS011;6580;42.680;23.324;2022-10-16T14:18:59;3.08;;;2.78;;
13026;SDS011;6580;42.680;23.324;2022-10-16T14:21:30;3.60;;;3.20;;
13026;SDS011;6580;42.680;23.324;2022-10-16T14:23:57;4.75;;;3.40;;
13026;SDS011;6580;42.680;23.324;2022-10-16T14:26:27;3.42;;;3.10;;
13026;SDS011;6580;42.680;23.324;2022-10-16T14:29:01;3.40;;;2.95;;
13026;SDS011;6580;42.680;23.324;2022-10-16T14:31:37;3.25;;;2.80;;
13026;SDS011;6580;42.680;23.324;2022-10-16T14:36:52;6.88;;;4.13;;
13026;SDS011;6580;42.680;23.324;2022-10-16T14:39:20;3.35;;;3.05;;
13026;SDS011;6580;42.680;23.324;2022-10-16T14:41:54;4.47;;;2.83;;
13026;SDS011;6580;42.680;23.324;2022-10-16T14:44:25;3.08;;;2.78;;
13026;SDS011;6580;42.680;23.324;2022-10-16T14:46:55;4.15;;;2.90;;
13026;SDS011;6580;42.680;23.324;2022-10-16T14:49:25;3.65;;;2.75;;
13026;SDS011;6580;42.680;23.324;2022-10-16T14:51:53;5.78;;;2.95;;
13026;SDS011;6580;42.680;23.324;2022-10-16T14:54:20;3.38;;;3.08;;
13026;SDS011;6580;42.680;23.324;2022-10-16T14:56:48;3.80;;;3.25;;
13026;SDS011;6580;42.680;23.324;2022-10-16T14:59:22;4.03;;;3.38;;
13026;SDS011;6580;42.680;23.324;2022-10-16T15:01:54;3.92;;;3.63;;
13026;SDS011;6580;42.680;23.324;2022-10-16T15:04:21;4.18;;;3.10;;
13026;SDS011;6580;42.680;23.324;2022-10-16T15:06:48;5.10;;;3.30;;
13026;SDS011;6580;42.680;23.324;2022-10-16T15:09:20;3.58;;;3.17;;
13026;SDS011;6580;42.680;23.324;2022-10-16T15:11:47;5.18;;;3.40;;
13026;SDS011;6580;42.680;23.324;2022-10-16T15:14:15;3.65;;;3.33;;